createdAt,value
2022-09-24T00:04:02.964Z,7.97
2022-09-24T00:09:36.439Z,7.98
2022-09-24T00:14:47.764Z,7.90
2022-09-24T00:20:01.540Z,7.96
2022-09-24T00:25:42.217Z,8.05
2022-09-24T00:31:08.181Z,8.08
2022-09-24T00:36:18.635Z,8.12
2022-09-24T00:41:49.208Z,8.14
2022-09-24T00:47:15.110Z,8.20
2022-09-24T00:52:46.442Z,8.26
2022-09-24T00:57:58.522Z,8.33
2022-09-24T01:03:10.673Z,8.42
2022-09-24T01:08:41.662Z,8.46
2022-09-24T01:14:33.090Z,8.43
2022-09-24T01:20:14.821Z,8.44
2022-09-24T01:25:33.053Z,8.49
2022-09-24T01:30:43.560Z,8.54
2022-09-24T01:36:09.836Z,8.56
2022-09-24T01:41:39.624Z,8.51
2022-09-24T01:47:00.171Z,8.48
2022-09-24T01:52:22.577Z,8.44
2022-09-24T01:57:48.214Z,8.46
2022-09-24T02:03:01.961Z,8.45
2022-09-24T02:08:23.566Z,8.35
2022-09-24T02:13:56.663Z,8.39
2022-09-24T02:19:17.230Z,8.49
2022-09-24T02:24:33.923Z,8.54
2022-09-24T02:30:02.722Z,8.53
2022-09-24T02:35:21.226Z,8.48
2022-09-24T02:40:31.848Z,8.47
2022-09-24T02:45:48.349Z,8.46
2022-09-24T02:50:55.959Z,8.46
2022-09-24T02:56:05.564Z,8.43
2022-09-24T03:01:24.806Z,8.41
2022-09-24T03:06:45.948Z,8.41
2022-09-24T03:12:07.946Z,8.47
2022-09-24T03:17:34.325Z,8.52
2022-09-24T03:22:55.221Z,8.51
2022-09-24T03:28:16.251Z,8.47
2022-09-24T03:33:23.858Z,8.47
2022-09-24T03:38:38.398Z,8.49
2022-09-24T03:43:46.495Z,8.53
2022-09-24T03:49:14.200Z,8.58
2022-09-24T03:54:41.799Z,8.55
2022-09-24T04:00:09.926Z,8.56
2022-09-24T04:05:18.489Z,8.60
2022-09-24T04:10:47.885Z,8.67
2022-09-24T04:16:42.212Z,8.71
2022-09-24T04:22:10.237Z,8.67
2022-09-24T04:27:28.972Z,8.67
2022-09-24T04:33:01.863Z,8.70
2022-09-24T04:38:29.627Z,8.71
2022-09-24T04:43:58.010Z,8.70
2022-09-24T04:49:15.605Z,8.68
2022-09-24T04:54:34.212Z,8.67
2022-09-24T05:00:26.088Z,8.75
2022-09-24T05:06:17.490Z,8.77
2022-09-24T05:11:45.146Z,8.76
2022-09-24T05:17:04.208Z,8.73
2022-09-24T05:22:11.404Z,8.73
2022-09-24T05:27:39.329Z,8.78
2022-09-24T05:32:49.704Z,8.83
2022-09-24T05:37:57.173Z,8.85
2022-09-24T05:43:07.255Z,8.85
2022-09-24T05:48:31.217Z,8.89
2022-09-24T05:53:50.590Z,8.97
2022-09-24T05:58:57.916Z,9.03
2022-09-24T06:04:16.551Z,9.08
2022-09-24T06:09:36.717Z,9.13
2022-09-24T06:15:04.404Z,9.22
2022-09-24T06:20:12.226Z,9.33
2022-09-24T06:25:18.239Z,9.38
2022-09-24T06:30:38.258Z,9.41
2022-09-24T06:35:50.192Z,9.43
2022-09-24T06:41:08.069Z,9.46
2022-09-24T06:46:35.795Z,9.50
2022-09-24T06:51:43.325Z,9.54
2022-09-24T06:56:50.549Z,9.55
2022-09-24T07:02:18.257Z,9.64
2022-09-24T07:07:37.916Z,9.81
2022-09-24T07:12:58.707Z,10.05
2022-09-24T07:18:07.176Z,10.26
2022-09-24T07:23:31.059Z,10.46
2022-09-24T07:28:38.347Z,10.71
2022-09-24T07:33:45.751Z,10.95
2022-09-24T07:39:00.364Z,11.08
2022-09-24T07:44:32.148Z,11.42
2022-09-24T07:50:48.395Z,11.81
2022-09-24T07:56:01.679Z,12.12
2022-09-24T08:01:23.784Z,12.37
2022-09-24T08:06:48.796Z,12.40
2022-09-24T08:12:11.234Z,12.40
2022-09-24T08:17:29.068Z,12.50
2022-09-24T08:22:49.406Z,12.53
2022-09-24T08:28:09.057Z,12.45
2022-09-24T08:33:22.269Z,12.44
2022-09-24T08:38:29.754Z,12.52
2022-09-24T08:43:48.481Z,12.68
2022-09-24T08:48:59.478Z,12.89
2022-09-24T08:54:11.295Z,12.99
2022-09-24T08:59:30.575Z,12.99
2022-09-24T09:04:50.044Z,13.14
2022-09-24T09:10:16.389Z,13.19
2022-09-24T09:15:31.279Z,13.18
2022-09-24T09:21:07.698Z,13.36
2022-09-24T09:26:26.885Z,13.69
2022-09-24T09:31:56.477Z,13.85
2022-09-24T09:37:29.791Z,13.94
2022-09-24T09:43:04.421Z,14.14
2022-09-24T09:48:43.501Z,14.34
2022-09-24T09:54:03.027Z,14.68
2022-09-24T09:59:29.428Z,14.96
2022-09-24T10:04:59.978Z,15.14
2022-09-24T10:10:28.317Z,15.32
2022-09-24T10:15:45.434Z,15.39
2022-09-24T10:21:16.906Z,15.30
2022-09-24T10:26:45.280Z,15.44
2022-09-24T10:32:00.738Z,15.67
2022-09-24T10:37:28.516Z,15.65
2022-09-24T10:42:38.606Z,15.58
2022-09-24T10:48:11.829Z,15.56
2022-09-24T10:53:42.323Z,15.68
2022-09-24T10:59:32.572Z,15.77
2022-09-24T11:04:47.751Z,15.85
2022-09-24T11:10:35.990Z,16.02
2022-09-24T11:16:11.230Z,16.14
2022-09-24T11:21:48.441Z,16.03
2022-09-24T11:27:34.584Z,15.93
2022-09-24T11:33:23.246Z,15.96
2022-09-24T11:38:50.921Z,16.08
2022-09-24T11:44:52.564Z,16.12
2022-09-24T11:50:19.454Z,16.24
2022-09-24T11:55:44.460Z,16.29
2022-09-24T12:01:00.202Z,16.20
2022-09-24T12:06:33.954Z,16.03
2022-09-24T12:11:47.378Z,15.94
2022-09-24T12:17:01.749Z,15.84
2022-09-24T12:22:28.242Z,15.74
2022-09-24T12:27:39.955Z,15.70
2022-09-24T12:32:56.284Z,15.72
2022-09-24T12:38:10.039Z,15.71
2022-09-24T12:43:26.514Z,15.71
2022-09-24T12:48:48.210Z,15.74
2022-09-24T12:54:06.922Z,15.76
2022-09-24T12:59:29.793Z,15.82
2022-09-24T13:04:37.717Z,15.87
2022-09-24T13:09:54.399Z,15.86
2022-09-24T13:15:35.205Z,15.85
2022-09-24T13:21:09.422Z,15.87
2022-09-24T13:26:30.447Z,15.82
2022-09-24T13:32:07.233Z,15.81
2022-09-24T13:37:33.379Z,15.84
2022-09-24T13:42:52.506Z,15.84
2022-09-24T13:48:04.997Z,15.85
2022-09-24T13:53:23.514Z,15.86
2022-09-24T13:58:54.473Z,15.83
2022-09-24T14:04:25.984Z,15.80
2022-09-24T14:09:48.061Z,15.80
2022-09-24T14:14:58.478Z,15.81
2022-09-24T14:20:28.153Z,15.80
2022-09-24T14:25:39.977Z,15.78
2022-09-24T14:30:54.262Z,15.76
2022-09-24T14:36:16.873Z,15.76
2022-09-24T14:41:37.723Z,15.73
2022-09-24T14:47:31.379Z,15.70
2022-09-24T14:52:43.073Z,15.60
2022-09-24T14:57:57.492Z,15.49
2022-09-24T15:03:31.492Z,15.38
2022-09-24T15:08:40.301Z,15.30
2022-09-24T15:13:58.740Z,15.19
2022-09-24T15:19:30.885Z,15.09
2022-09-24T15:24:40.784Z,15.02
2022-09-24T15:29:51.544Z,14.97
2022-09-24T15:34:58.940Z,14.89
2022-09-24T15:40:17.245Z,14.81
2022-09-24T15:45:35.942Z,14.73
2022-09-24T15:51:10.112Z,14.66
2022-09-24T15:56:29.091Z,14.55
2022-09-24T16:01:44.308Z,14.46
2022-09-24T16:06:50.777Z,14.38
2022-09-24T16:12:06.251Z,14.29
2022-09-24T16:17:25.246Z,14.20
2022-09-24T16:22:35.942Z,14.14
2022-09-24T16:27:45.997Z,14.10
2022-09-24T16:32:55.811Z,14.02
2022-09-24T16:38:12.315Z,13.93
2022-09-24T16:43:28.285Z,13.84
2022-09-24T16:49:19.840Z,13.74
2022-09-24T16:54:36.976Z,13.65
2022-09-24T16:59:55.345Z,13.53
2022-09-24T17:05:02.922Z,13.39
2022-09-24T17:10:16.217Z,13.27
2022-09-24T17:15:23.563Z,13.13
2022-09-24T17:21:00.329Z,12.98
2022-09-24T17:26:11.869Z,12.84
2022-09-24T17:31:32.477Z,12.72
2022-09-24T17:36:51.250Z,12.65
2022-09-24T17:41:59.052Z,12.60
2022-09-24T17:47:47.392Z,12.54
2022-09-24T17:52:54.701Z,12.49
2022-09-24T17:58:02.029Z,12.46
2022-09-24T18:03:09.802Z,12.47
2022-09-24T18:08:16.159Z,12.50
2022-09-24T18:13:35.273Z,12.51
2022-09-24T18:18:49.298Z,12.49
2022-09-24T18:23:57.894Z,12.45
2022-09-24T18:29:10.476Z,12.41
2022-09-24T18:34:43.198Z,12.36
2022-09-24T18:39:52.095Z,12.31
2022-09-24T18:44:59.835Z,12.27
2022-09-24T18:50:15.186Z,12.24
2022-09-24T18:55:39.336Z,12.22
2022-09-24T19:01:03.391Z,12.18
2022-09-24T19:06:32.617Z,12.17
2022-09-24T19:11:45.739Z,12.15
2022-09-24T19:16:56.452Z,12.14
2022-09-24T19:22:03.604Z,12.11
2022-09-24T19:27:12.729Z,12.09
2022-09-24T19:32:41.769Z,12.06
2022-09-24T19:37:52.197Z,12.01
2022-09-24T19:43:03.865Z,11.97
2022-09-24T19:48:12.492Z,11.93
2022-09-24T19:53:21.323Z,11.87
2022-09-24T19:58:30.016Z,11.83
2022-09-24T20:10:49.315Z,11.74
2022-09-24T20:16:09.284Z,11.70
2022-09-24T20:21:25.158Z,11.68
2022-09-24T20:26:54.536Z,11.71
2022-09-24T20:32:28.462Z,11.77
2022-09-24T20:38:03.272Z,11.81
2022-09-24T20:43:11.758Z,11.82
2022-09-24T20:48:44.911Z,11.79
2022-09-24T20:54:25.065Z,11.74
2022-09-24T20:59:50.647Z,11.67
2022-09-24T21:05:23.311Z,11.62
2022-09-24T21:11:18.507Z,11.55
2022-09-24T21:38:05.184Z,11.56
2022-09-24T21:44:06.057Z,11.58
2022-09-24T21:49:37.195Z,11.54
2022-09-24T22:49:13.883Z,11.47
2022-09-24T23:26:14.231Z,11.43
2022-09-24T23:46:16.034Z,11.19
